Time;durP1;ratioP1;P1;durP2;ratioP2;P2;SDS_P1;SDS_P2;PMS_P1;PMS_P2;Temp;Humidity;BMP_temperature;BMP_pressure;BME280_temperature;BME280_humidity;BME280_pressure;Samples;Min_cycle;Max_cycle;Signal;HPM_P1;HPM_P2
2020/12/20 00:01:41;;;;;;;;;;;6.50;99.90;;;;;;5031417;28;20401;-76
2020/12/20 00:04:06;;;;;;;;;;;6.50;99.90;;;;;;5031252;28;19913;-76
2020/12/20 00:06:40;;;;;;;;;;;6.50;99.90;;;;;;5029382;28;19920;-75
2020/12/20 00:09:13;;;;;;;;;;;6.40;99.90;;;;;;5031284;28;20370;-75
2020/12/20 00:11:43;;;;;;;;;;;6.30;99.90;;;;;;5031279;28;19956;-75
2020/12/20 00:14:27;;;;;;;;;;;6.30;99.90;;;;;;5029916;28;19909;-75
2020/12/20 00:16:57;;;;;;;;;;;6.30;99.90;;;;;;5033336;28;19910;-76
2020/12/20 00:19:23;;;;;;;;;;;6.40;99.90;;;;;;5034745;28;20013;-77
2020/12/20 00:21:52;;;;;;;;;;;6.30;99.90;;;;;;5034715;28;19945;-76
2020/12/20 00:24:17;;;;;;;;;;;6.30;99.90;;;;;;5022849;28;19913;-75
2020/12/20 00:26:43;;;;;;;;;;;6.20;99.90;;;;;;5014468;28;19913;-76
2020/12/20 00:29:09;;;;;;;;;;;6.10;99.90;;;;;;5014740;28;19972;-76
2020/12/20 00:31:34;;;;;;;;;;;6.10;99.90;;;;;;5014573;28;20351;-78
2020/12/20 00:33:59;;;;;;;;;;;6.10;99.90;;;;;;5013320;28;19917;-75
2020/12/20 00:36:25;;;;;;;;;;;6.10;99.90;;;;;;5013028;28;20417;-76
2020/12/20 00:38:50;;;;;;;;;;;6.20;99.90;;;;;;5014603;28;19916;-76
2020/12/20 00:41:16;;;;;;;;;;;6.20;99.90;;;;;;5014580;28;19957;-75
2020/12/20 00:43:41;;;;;;;;;;;6.20;99.90;;;;;;5014445;28;19931;-76
2020/12/20 00:46:07;;;;;;;;;;;6.20;99.90;;;;;;5013892;28;19999;-76
2020/12/20 00:48:32;;;;;;;;;;;6.20;99.90;;;;;;5014415;28;20405;-75
2020/12/20 00:50:59;;;;;;;;;;;6.10;99.90;;;;;;5014272;28;20031;-76
2020/12/20 00:53:25;;;;;;;;;;;6.10;99.90;;;;;;5015648;28;20012;-75
2020/12/20 00:55:50;;;;;;;;;;;6.10;99.90;;;;;;5021985;28;19952;-75
2020/12/20 00:58:16;;;;;;;;;;;6.10;99.90;;;;;;5014250;28;19968;-75
2020/12/20 01:00:41;;;;;;;;;;;6.10;99.90;;;;;;5014053;28;19955;-75
2020/12/20 01:03:06;;;;;;;;;;;6.10;99.90;;;;;;5014066;28;19913;-75
2020/12/20 01:05:32;;;;;;;;;;;6.00;99.90;;;;;;5014007;28;20390;-75
2020/12/20 01:07:57;;;;;;;;;;;6.00;99.90;;;;;;5013722;28;19919;-78
2020/12/20 01:10:23;;;;;;;;;;;5.90;99.90;;;;;;5014012;28;19910;-77
2020/12/20 01:12:48;;;;;;;;;;;5.90;99.90;;;;;;5013866;28;20397;-75
2020/12/20 01:15:14;;;;;;;;;;;5.90;99.90;;;;;;5013768;28;19917;-75
2020/12/20 01:17:39;;;;;;;;;;;5.90;99.90;;;;;;5012188;28;20551;-77
2020/12/20 01:20:05;;;;;;;;;;;5.90;99.90;;;;;;5013715;28;19909;-75
2020/12/20 01:22:30;;;;;;;;;;;5.90;99.90;;;;;;5013701;28;19910;-75
2020/12/20 01:24:56;;;;;;;;;;;5.90;99.90;;;;;;5020976;28;19967;-76
2020/12/20 01:27:22;;;;;;;;;;;5.90;99.90;;;;;;5014612;28;19920;-78
2020/12/20 01:29:47;;;;;;;;;;;5.90;99.90;;;;;;5013611;28;19913;-75
2020/12/20 01:32:16;;;;;;;;;;;5.90;99.90;;;;;;5013384;28;19910;-75
2020/12/20 01:34:42;;;;;;;;;;;5.90;99.90;;;;;;5013571;28;19916;-75
2020/12/20 01:37:08;;;;;;;;;;;5.90;99.90;;;;;;5013124;28;20000;-76
2020/12/20 01:39:33;;;;;;;;;;;6.00;99.90;;;;;;5013493;28;19945;-77
2020/12/20 01:41:59;;;;;;;;;;;6.00;99.90;;;;;;5013326;28;19960;-75
2020/12/20 01:44:24;;;;;;;;;;;6.10;99.90;;;;;;5047326;23;19932;-86
2020/12/20 01:46:50;;;;;;;;;;;6.10;99.90;;;;;;5071267;28;19918;-86
2020/12/20 01:49:16;;;;;;;;;;;6.10;99.90;;;;;;5068734;28;19986;-87
2020/12/20 01:51:41;;;;;;;;;;;6.10;99.90;;;;;;5071206;28;20576;-88
2020/12/20 01:54:09;;;;;;;;;;;6.10;99.90;;;;;;5069782;28;20146;-87
2020/12/20 01:56:35;;;;;;;;;;;6.20;99.90;;;;;;5071505;28;19909;-88
2020/12/20 01:59:00;;;;;;;;;;;6.20;99.90;;;;;;5071976;28;19950;-88
2020/12/20 02:01:25;;;;;;;;;;;6.20;99.90;;;;;;5071604;28;19952;-87
2020/12/20 02:03:51;;;;;;;;;;;6.20;99.90;;;;;;5071545;28;19916;-87
2020/12/20 02:06:17;;;;;;;;;;;6.20;99.90;;;;;;5071629;28;20347;-88
2020/12/20 02:08:42;;;;;;;;;;;6.20;99.90;;;;;;5072877;28;19908;-87
2020/12/20 02:11:07;;;;;;;;;;;6.20;99.90;;;;;;5071790;28;19915;-87
2020/12/20 02:13:33;;;;;;;;;;;6.20;99.90;;;;;;5071632;28;20287;-88
2020/12/20 02:15:59;;;;;;;;;;;6.20;99.90;;;;;;5071556;28;20007;-87
2020/12/20 02:18:24;;;;;;;;;;;6.20;99.90;;;;;;5071429;28;19923;-88
2020/12/20 02:20:50;;;;;;;;;;;6.10;99.90;;;;;;5063176;28;19912;-88
2020/12/20 02:23:16;;;;;;;;;;;6.10;99.90;;;;;;5072723;28;19909;-88
2020/12/20 02:25:41;;;;;;;;;;;6.00;99.90;;;;;;5072655;28;20279;-88
2020/12/20 02:28:07;;;;;;;;;;;6.00;99.90;;;;;;5071175;28;19919;-88
2020/12/20 02:30:33;;;;;;;;;;;6.00;99.90;;;;;;5071466;28;19935;-88
2020/12/20 02:32:59;;;;;;;;;;;5.90;99.90;;;;;;5071472;28;19909;-87
2020/12/20 02:35:24;;;;;;;;;;;5.90;99.90;;;;;;5071285;28;20291;-87
2020/12/20 02:37:49;;;;;;;;;;;5.90;99.90;;;;;;5071486;28;19915;-87
2020/12/20 02:40:15;;;;;;;;;;;5.90;99.90;;;;;;5071006;28;19912;-87
2020/12/20 02:42:40;;;;;;;;;;;5.90;99.90;;;;;;5071526;28;19915;-88
2020/12/20 02:45:06;;;;;;;;;;;6.00;99.90;;;;;;5071087;28;19923;-87
2020/12/20 02:47:31;;;;;;;;;;;6.00;99.90;;;;;;5070940;28;20390;-87
2020/12/20 02:49:57;;;;;;;;;;;5.90;99.90;;;;;;5065139;28;19908;-88
2020/12/20 02:52:22;;;;;;;;;;;5.90;99.90;;;;;;5069026;28;20014;-88
2020/12/20 02:54:48;;;;;;;;;;;5.90;99.90;;;;;;5071088;28;19908;-88
2020/12/20 02:57:13;;;;;;;;;;;5.90;99.90;;;;;;5071021;28;20251;-88
2020/12/20 02:59:39;;;;;;;;;;;5.90;99.90;;;;;;5070991;28;19912;-87
2020/12/20 03:02:04;;;;;;;;;;;6.00;99.90;;;;;;5071276;28;19909;-87
2020/12/20 03:04:29;;;;;;;;;;;6.00;99.90;;;;;;5072287;28;19909;-88
2020/12/20 03:06:55;;;;;;;;;;;6.00;99.90;;;;;;5072081;28;20383;-87
2020/12/20 03:09:20;;;;;;;;;;;6.00;99.90;;;;;;5070965;28;19908;-88
2020/12/20 03:11:46;;;;;;;;;;;6.00;99.90;;;;;;5071122;28;19908;-87
2020/12/20 03:14:11;;;;;;;;;;;6.10;99.90;;;;;;5071023;28;19909;-87
2020/12/20 03:16:37;;;;;;;;;;;6.00;99.90;;;;;;5070873;28;19908;-87
2020/12/20 03:19:02;;;;;;;;;;;6.00;99.90;;;;;;5070866;28;19962;-88
2020/12/20 03:21:28;;;;;;;;;;;6.00;99.90;;;;;;5052091;28;19916;-87
2020/12/20 03:23:53;;;;;;;;;;;6.00;99.90;;;;;;5051094;28;19960;-87
2020/12/20 03:26:19;;;;;;;;;;;5.90;99.90;;;;;;5051885;28;19913;-88
2020/12/20 03:28:44;;;;;;;;;;;5.90;99.90;;;;;;5050795;28;19909;-88
2020/12/20 03:31:10;;;;;;;;;;;5.90;99.90;;;;;;5050683;28;20007;-88
2020/12/20 03:33:35;;;;;;;;;;;5.90;99.90;;;;;;5050898;28;19920;-88
2020/12/20 03:36:01;;;;;;;;;;;5.90;99.90;;;;;;5050581;28;20395;-88
2020/12/20 03:38:26;;;;;;;;;;;6.00;99.90;;;;;;5050911;28;19909;-87
2020/12/20 03:40:51;;;;;;;;;;;6.00;99.90;;;;;;5050601;28;19931;-88
2020/12/20 03:43:17;;;;;;;;;;;6.00;99.90;;;;;;5051773;28;19909;-87
2020/12/20 03:45:42;;;;;;;;;;;6.00;99.90;;;;;;5050464;28;19963;-87
2020/12/20 03:48:08;;;;;;;;;;;6.00;99.90;;;;;;5050502;28;19913;-87
2020/12/20 03:50:34;;;;;;;;;;;6.10;99.90;;;;;;5062093;28;20015;-87
2020/12/20 03:52:59;;;;;;;;;;;6.00;99.90;;;;;;5074365;28;19909;-88
2020/12/20 03:55:26;;;;;;;;;;;6.00;99.90;;;;;;5074393;28;20330;-87
2020/12/20 03:57:51;;;;;;;;;;;6.00;99.90;;;;;;5074199;28;19909;-87
2020/12/20 04:00:17;;;;;;;;;;;6.00;99.90;;;;;;5074222;28;19908;-87
2020/12/20 04:02:42;;;;;;;;;;;6.00;99.90;;;;;;5074195;28;19909;-87
2020/12/20 04:05:08;;;;;;;;;;;6.00;99.90;;;;;;5074389;28;19934;-87
2020/12/20 04:07:33;;;;;;;;;;;6.00;99.90;;;;;;5073741;28;19912;-87
2020/12/20 04:09:59;;;;;;;;;;;6.00;99.90;;;;;;5074112;28;19908;-87
2020/12/20 04:12:24;;;;;;;;;;;6.00;99.90;;;;;;5073782;28;19962;-87
2020/12/20 04:14:50;;;;;;;;;;;6.00;99.90;;;;;;5073993;28;19962;-87
2020/12/20 04:17:15;;;;;;;;;;;5.90;99.90;;;;;;5073717;28;19934;-87
2020/12/20 04:19:41;;;;;;;;;;;5.90;99.90;;;;;;5069881;28;19909;-87
2020/12/20 04:22:06;;;;;;;;;;;5.90;99.90;;;;;;5053959;28;19909;-88
2020/12/20 04:24:31;;;;;;;;;;;5.90;99.90;;;;;;5053910;28;19908;-87
2020/12/20 04:26:57;;;;;;;;;;;5.90;99.90;;;;;;5054738;28;20375;-87
2020/12/20 04:29:22;;;;;;;;;;;5.90;99.90;;;;;;5053568;28;19916;-86
2020/12/20 04:31:48;;;;;;;;;;;6.00;99.90;;;;;;5053806;28;19970;-87
2020/12/20 04:34:13;;;;;;;;;;;6.00;99.90;;;;;;5053829;28;19912;-88
2020/12/20 04:36:39;;;;;;;;;;;6.00;99.90;;;;;;5054703;28;19909;-86
2020/12/20 04:39:04;;;;;;;;;;;6.00;99.90;;;;;;5053717;28;20393;-87
2020/12/20 04:41:30;;;;;;;;;;;6.10;99.90;;;;;;5053465;28;19909;-87
2020/12/20 04:43:55;;;;;;;;;;;6.00;99.90;;;;;;5054485;28;19927;-88
2020/12/20 04:46:21;;;;;;;;;;;6.10;99.90;;;;;;5053154;28;20371;-87
2020/12/20 04:48:47;;;;;;;;;;;6.10;99.90;;;;;;5066164;28;19908;-88
2020/12/20 04:51:13;;;;;;;;;;;6.10;99.90;;;;;;5064978;28;19972;-87
2020/12/20 04:53:39;;;;;;;;;;;6.10;99.90;;;;;;5073461;28;19948;-87
2020/12/20 04:56:09;;;;;;;;;;;6.10;99.90;;;;;;5073141;28;20357;-87
2020/12/20 04:58:35;;;;;;;;;;;6.10;99.90;;;;;;5073473;28;19916;-87
2020/12/20 05:01:01;;;;;;;;;;;6.10;99.90;;;;;;5073610;28;19916;-87
2020/12/20 05:03:27;;;;;;;;;;;6.10;99.90;;;;;;5073277;28;19908;-87
2020/12/20 05:05:53;;;;;;;;;;;6.10;99.90;;;;;;5073059;28;19931;-87
2020/12/20 05:08:19;;;;;;;;;;;6.10;99.90;;;;;;5074385;28;19919;-88
2020/12/20 05:10:45;;;;;;;;;;;6.10;99.90;;;;;;5072986;28;19983;-87
2020/12/20 05:13:10;;;;;;;;;;;6.00;99.90;;;;;;5073131;28;20407;-87
2020/12/20 05:15:36;;;;;;;;;;;6.00;99.90;;;;;;5072794;28;20003;-87
2020/12/20 05:18:04;;;;;;;;;;;6.00;99.90;;;;;;5074023;28;20256;-88
2020/12/20 05:20:48;;;;;;;;;;;5.90;99.90;;;;;;5064188;28;19920;-87
2020/12/20 05:23:14;;;;;;;;;;;5.90;99.90;;;;;;5072927;28;19917;-87
2020/12/20 05:25:40;;;;;;;;;;;5.80;99.90;;;;;;5072676;28;19912;-88
2020/12/20 05:28:13;;;;;;;;;;;5.80;99.90;;;;;;5072798;28;19963;-88
2020/12/20 05:30:40;;;;;;;;;;;5.80;99.90;;;;;;5072683;28;19915;-88
2020/12/20 05:33:06;;;;;;;;;;;5.80;99.90;;;;;;5073886;28;19916;-87
2020/12/20 05:35:32;;;;;;;;;;;5.80;99.90;;;;;;5072534;28;20290;-87
2020/12/20 05:37:58;;;;;;;;;;;5.90;99.90;;;;;;5073628;28;20368;-87
2020/12/20 05:40:25;;;;;;;;;;;5.90;99.90;;;;;;5072488;28;19916;-88
2020/12/20 05:42:55;;;;;;;;;;;5.80;99.90;;;;;;5072371;28;19993;-87
2020/12/20 05:45:22;;;;;;;;;;;5.90;99.90;;;;;;5072291;28;19924;-87
2020/12/20 05:47:48;;;;;;;;;;;5.80;99.90;;;;;;5072073;28;19913;-87
2020/12/20 05:50:13;;;;;;;;;;;5.80;99.90;;;;;;5064900;28;19909;-87
2020/12/20 05:52:39;;;;;;;;;;;5.80;99.90;;;;;;5072245;28;19908;-87
2020/12/20 05:55:11;;;;;;;;;;;5.80;99.90;;;;;;5072163;28;19920;-87
2020/12/20 05:57:37;;;;;;;;;;;5.80;99.90;;;;;;5072970;28;19918;-87
2020/12/20 06:00:03;;;;;;;;;;;5.80;99.90;;;;;;5072180;28;20413;-87
2020/12/20 06:02:28;;;;;;;;;;;5.80;99.90;;;;;;5073354;28;19923;-87
2020/12/20 06:04:55;;;;;;;;;;;5.80;99.90;;;;;;5071887;28;19931;-88
2020/12/20 06:07:24;;;;;;;;;;;5.80;99.90;;;;;;5071822;28;19920;-87
2020/12/20 06:09:54;;;;;;;;;;;5.80;99.90;;;;;;5071894;28;20491;-88
2020/12/20 06:12:24;;;;;;;;;;;5.80;99.90;;;;;;5072056;28;20166;-87
2020/12/20 06:14:50;;;;;;;;;;;5.70;99.90;;;;;;5071371;28;19908;-87
2020/12/20 06:17:19;;;;;;;;;;;5.70;99.90;;;;;;5071496;28;19958;-87
2020/12/20 06:19:45;;;;;;;;;;;5.70;99.90;;;;;;5068586;28;20307;-87
2020/12/20 06:22:17;;;;;;;;;;;5.70;99.90;;;;;;5067632;28;19908;-87
2020/12/20 06:24:45;;;;;;;;;;;5.70;99.90;;;;;;5071679;28;19908;-88
2020/12/20 06:27:12;;;;;;;;;;;5.70;99.90;;;;;;5071080;28;19920;-88
2020/12/20 06:29:38;;;;;;;;;;;5.70;99.90;;;;;;5071389;28;20364;-88
2020/12/20 06:32:04;;;;;;;;;;;5.60;99.90;;;;;;5071432;28;19908;-87
2020/12/20 06:34:30;;;;;;;;;;;5.60;99.90;;;;;;5071721;28;19920;-87
2020/12/20 06:36:57;;;;;;;;;;;5.60;99.90;;;;;;5071512;28;20345;-87
2020/12/20 06:39:36;;;;;;;;;;;5.60;99.90;;;;;;5071382;28;20260;-88
2020/12/20 06:42:01;;;;;;;;;;;5.60;99.90;;;;;;5071590;28;20025;-88
2020/12/20 06:44:27;;;;;;;;;;;5.60;99.90;;;;;;5071318;28;20363;-87
2020/12/20 06:46:52;;;;;;;;;;;5.60;99.90;;;;;;5071118;28;19930;-87
2020/12/20 06:49:36;;;;;;;;;;;5.60;99.90;;;;;;5070396;28;19987;-87
2020/12/20 06:52:29;;;;;;;;;;;5.60;99.90;;;;;;5066210;28;19994;-88
2020/12/20 06:55:01;;;;;;;;;;;5.60;99.90;;;;;;5069200;28;19908;-87
2020/12/20 06:57:27;;;;;;;;;;;5.60;99.90;;;;;;5071254;28;20279;-87
2020/12/20 06:59:52;;;;;;;;;;;5.60;99.90;;;;;;5071024;28;20006;-87
2020/12/20 07:02:36;;;;;;;;;;;5.60;99.90;;;;;;5071242;28;19908;-87
2020/12/20 07:05:02;;;;;;;;;;;5.60;99.90;;;;;;5071455;28;20375;-88
2020/12/20 07:07:27;;;;;;;;;;;5.60;99.90;;;;;;5072098;28;19917;-87
2020/12/20 07:09:53;;;;;;;;;;;5.60;99.90;;;;;;5071113;28;20035;-87
2020/12/20 07:12:31;;;;;;;;;;;5.60;99.90;;;;;;5071055;28;19916;-87
2020/12/20 07:14:57;;;;;;;;;;;5.60;99.90;;;;;;5071076;28;19908;-87
2020/12/20 07:17:24;;;;;;;;;;;5.60;99.90;;;;;;5071226;28;19916;-87
2020/12/20 07:20:11;;;;;;;;;;;5.60;99.90;;;;;;5065623;28;19912;-87
2020/12/20 07:22:41;;;;;;;;;;;5.50;99.90;;;;;;5070802;28;19908;-87
2020/12/20 07:25:07;;;;;;;;;;;5.50;99.90;;;;;;5070819;28;19908;-87
2020/12/20 07:27:32;;;;;;;;;;;5.50;99.90;;;;;;5074820;28;19916;-87
2020/12/20 07:29:58;;;;;;;;;;;5.50;99.90;;;;;;5066810;28;19909;-87
2020/12/20 07:32:23;;;;;;;;;;;5.50;99.90;;;;;;5056466;28;20007;-86
2020/12/20 07:34:49;;;;;;;;;;;5.50;99.90;;;;;;5060135;28;19912;-87
2020/12/20 07:37:15;;;;;;;;;;;5.50;99.90;;;;;;5081314;28;19916;-87
2020/12/20 07:39:42;;;;;;;;;;;5.60;99.90;;;;;;5067712;28;19915;-86
2020/12/20 07:42:08;;;;;;;;;;;5.60;99.90;;;;;;5059864;28;19919;-88
2020/12/20 07:44:34;;;;;;;;;;;5.60;99.90;;;;;;5062673;28;19962;-86
2020/12/20 07:47:08;;;;;;;;;;;5.70;99.90;;;;;;5066369;28;19920;-87
2020/12/20 07:49:34;;;;;;;;;;;5.70;99.90;;;;;;5068547;28;19912;-87
2020/12/20 07:52:06;;;;;;;;;;;5.70;99.90;;;;;;5057378;28;19916;-87
2020/12/20 07:54:31;;;;;;;;;;;5.80;99.90;;;;;;5058790;28;19958;-86
2020/12/20 07:56:57;;;;;;;;;;;5.80;99.90;;;;;;5071519;28;19916;-86
2020/12/20 07:59:23;;;;;;;;;;;5.90;99.90;;;;;;5091631;28;20424;-87
2020/12/20 08:01:48;;;;;;;;;;;5.90;99.90;;;;;;5074509;28;19909;-87
2020/12/20 08:04:22;;;;;;;;;;;6.00;99.90;;;;;;5091151;28;19956;-86
2020/12/20 08:06:49;;;;;;;;;;;6.00;99.90;;;;;;5074501;28;19935;-88
2020/12/20 08:09:14;;;;;;;;;;;6.10;99.90;;;;;;5074065;28;19912;-87
2020/12/20 08:11:40;;;;;;;;;;;6.10;99.90;;;;;;5074468;28;19908;-87
2020/12/20 08:14:10;;;;;;;;;;;6.10;99.90;;;;;;5074467;28;19912;-87
2020/12/20 08:16:40;;;;;;;;;;;6.10;99.90;;;;;;5074041;28;20007;-87
2020/12/20 08:19:08;;;;;;;;;;;6.10;99.90;;;;;;5075835;28;19919;-88
2020/12/20 08:21:52;;;;;;;;;;;6.20;99.90;;;;;;5067134;28;19908;-88
2020/12/20 08:24:18;;;;;;;;;;;6.20;99.90;;;;;;5074195;28;19915;-87
2020/12/20 08:26:44;;;;;;;;;;;6.30;99.90;;;;;;5073944;28;20390;-87
2020/12/20 08:29:15;;;;;;;;;;;6.40;99.90;;;;;;5068335;28;19940;-87
2020/12/20 08:31:40;;;;;;;;;;;6.40;99.90;;;;;;5054159;28;19960;-87
2020/12/20 08:34:32;;;;;;;;;;;6.50;99.90;;;;;;5053991;28;19955;-87
2020/12/20 08:36:59;;;;;;;;;;;6.60;99.90;;;;;;5066544;28;20373;-88
2020/12/20 08:39:25;;;;;;;;;;;6.70;99.90;;;;;;5054032;28;19936;-88
2020/12/20 08:42:01;;;;;;;;;;;6.80;99.90;;;;;;5054243;28;20406;-87
2020/12/20 08:44:26;;;;;;;;;;;7.00;99.90;;;;;;5055191;28;20276;-87
2020/12/20 08:46:52;;;;;;;;;;;7.10;99.90;;;;;;5053926;28;19936;-87
2020/12/20 08:49:17;;;;;;;;;;;7.20;99.90;;;;;;5053917;28;19935;-87
2020/12/20 08:51:43;;;;;;;;;;;7.30;99.90;;;;;;5053971;28;19935;-87
2020/12/20 08:54:25;;;;;;;;;;;7.30;99.90;;;;;;5053541;28;20406;-87
2020/12/20 08:56:58;;;;;;;;;;;7.40;99.90;;;;;;5069575;28;19908;-88
2020/12/20 08:59:27;;;;;;;;;;;7.50;99.90;;;;;;5071920;28;19946;-88
2020/12/20 09:01:52;;;;;;;;;;;7.60;99.90;;;;;;5073821;28;19908;-88
2020/12/20 09:04:18;;;;;;;;;;;7.70;99.90;;;;;;5090460;28;19916;-89
2020/12/20 09:06:55;;;;;;;;;;;8.00;99.90;;;;;;5090592;28;20130;-88
2020/12/20 09:09:21;;;;;;;;;;;8.40;99.90;;;;;;5073543;28;20323;-87
2020/12/20 09:11:47;;;;;;;;;;;9.00;99.90;;;;;;5073599;28;19909;-88
2020/12/20 09:14:13;;;;;;;;;;;9.60;99.90;;;;;;5073496;28;19931;-88
2020/12/20 09:16:40;;;;;;;;;;;10.40;99.90;;;;;;5090317;28;19908;-88
2020/12/20 09:19:08;;;;;;;;;;;11.20;99.90;;;;;;5072691;28;19912;-88
2020/12/20 09:21:34;;;;;;;;;;;12.00;99.90;;;;;;5053573;28;19916;-88
2020/12/20 09:23:59;;;;;;;;;;;12.60;99.90;;;;;;5052759;28;19908;-88
2020/12/20 09:26:25;;;;;;;;;;;13.10;99.90;;;;;;5052608;28;19913;-89
2020/12/20 09:28:50;;;;;;;;;;;13.40;99.90;;;;;;5052622;28;19909;-88
2020/12/20 09:31:20;;;;;;;;;;;13.70;99.90;;;;;;5052649;28;20344;-88
2020/12/20 09:33:46;;;;;;;;;;;13.80;99.90;;;;;;5052683;28;19920;-89
2020/12/20 09:36:21;;;;;;;;;;;13.70;99.90;;;;;;5053857;28;19908;-89
2020/12/20 09:38:48;;;;;;;;;;;13.60;99.90;;;;;;5052469;28;19916;-88
2020/12/20 09:41:18;;;;;;;;;;;13.40;99.90;;;;;;5052530;28;20295;-88
2020/12/20 09:43:44;;;;;;;;;;;13.20;99.90;;;;;;5051934;28;20007;-86
2020/12/20 09:46:17;;;;;;;;;;;13.00;99.90;;;;;;5052267;28;20391;-87
2020/12/20 09:48:42;;;;;;;;;;;12.70;99.90;;;;;;5062389;28;20295;-88
2020/12/20 09:51:08;;;;;;;;;;;12.50;99.90;;;;;;5056196;28;19909;-87
2020/12/20 09:53:33;;;;;;;;;;;12.30;99.90;;;;;;5052219;28;19956;-88
2020/12/20 09:55:58;;;;;;;;;;;12.20;99.90;;;;;;5051856;28;19909;-88
2020/12/20 09:58:25;;;;;;;;;;;12.00;99.90;;;;;;5052258;28;19909;-89
2020/12/20 10:00:50;;;;;;;;;;;11.90;99.90;;;;;;5052227;28;19909;-89
2020/12/20 10:03:16;;;;;;;;;;;11.80;99.90;;;;;;5052166;28;20398;-88
2020/12/20 10:05:43;;;;;;;;;;;11.70;99.90;;;;;;5053221;28;19909;-88
2020/12/20 10:08:08;;;;;;;;;;;11.60;99.90;;;;;;5052264;28;20260;-88
2020/12/20 10:10:34;;;;;;;;;;;11.60;99.90;;;;;;5053227;28;19963;-91
2020/12/20 10:12:59;;;;;;;;;;;11.50;99.90;;;;;;5052046;28;19909;-90
2020/12/20 10:15:25;;;;;;;;;;;11.40;99.90;;;;;;5052006;28;19912;-89
2020/12/20 10:17:51;;;;;;;;;;;11.40;99.90;;;;;;5052013;28;20398;-89
2020/12/20 10:20:16;;;;;;;;;;;11.20;99.90;;;;;;5051988;28;19967;-90
2020/12/20 10:22:42;;;;;;;;;;;11.20;99.90;;;;;;5052000;28;19963;-90
2020/12/20 10:25:07;;;;;;;;;;;11.10;99.90;;;;;;5051892;28;19913;-89
2020/12/20 10:27:33;;;;;;;;;;;11.00;99.90;;;;;;5051715;28;20218;-89
2020/12/20 10:29:58;;;;;;;;;;;11.00;99.90;;;;;;5052986;28;19954;-89
2020/12/20 10:32:24;;;;;;;;;;;10.90;99.90;;;;;;5088828;28;19914;-87
2020/12/20 10:34:49;;;;;;;;;;;10.80;99.90;;;;;;5088817;28;19999;-86
2020/12/20 10:37:15;;;;;;;;;;;10.70;99.90;;;;;;5089374;28;19912;-87
2020/12/20 10:39:41;;;;;;;;;;;10.70;99.90;;;;;;5088877;28;19913;-87
2020/12/20 10:42:07;;;;;;;;;;;10.70;99.90;;;;;;5088986;28;19915;-90
2020/12/20 10:44:32;;;;;;;;;;;10.70;99.90;;;;;;5072135;28;19916;-89
2020/12/20 10:46:57;;;;;;;;;;;10.70;99.90;;;;;;5088774;28;19912;-89
2020/12/20 10:49:23;;;;;;;;;;;10.70;99.90;;;;;;5088837;28;19960;-89
2020/12/20 10:51:52;;;;;;;;;;;10.70;99.90;;;;;;5078197;28;19909;-89
2020/12/20 10:54:18;;;;;;;;;;;10.70;99.90;;;;;;5071602;28;19908;-89
2020/12/20 10:56:48;;;;;;;;;;;10.70;99.90;;;;;;5071237;28;20028;-89
2020/12/20 10:59:14;;;;;;;;;;;10.80;99.90;;;;;;5071344;28;19908;-89
2020/12/20 11:01:39;;;;;;;;;;;10.90;99.90;;;;;;5071321;28;19915;-89
2020/12/20 11:04:05;;;;;;;;;;;11.00;99.90;;;;;;5071195;28;19908;-89
2020/12/20 11:06:30;;;;;;;;;;;11.00;99.90;;;;;;5071450;28;20003;-89
2020/12/20 11:08:56;;;;;;;;;;;11.10;99.90;;;;;;5071335;28;20001;-88
2020/12/20 11:11:27;;;;;;;;;;;11.30;99.90;;;;;;5071435;28;20007;-89
2020/12/20 11:13:53;;;;;;;;;;;11.40;99.90;;;;;;5071273;28;19920;-90
2020/12/20 11:16:18;;;;;;;;;;;11.50;99.90;;;;;;5071057;28;19913;-89
2020/12/20 11:18:45;;;;;;;;;;;11.50;99.90;;;;;;5071212;28;19908;-89
2020/12/20 11:21:15;;;;;;;;;;;11.60;99.90;;;;;;5071118;28;19915;-90
2020/12/20 11:23:41;;;;;;;;;;;11.60;99.90;;;;;;5071061;28;19912;-89
2020/12/20 11:26:10;;;;;;;;;;;11.70;99.90;;;;;;5071067;28;20390;-89
2020/12/20 11:28:36;;;;;;;;;;;11.80;99.90;;;;;;5070929;28;20367;-89
2020/12/20 11:31:02;;;;;;;;;;;11.80;99.90;;;;;;5070906;28;19909;-89
2020/12/20 11:33:27;;;;;;;;;;;11.90;99.90;;;;;;5070887;28;19909;-90
2020/12/20 11:35:53;;;;;;;;;;;12.00;99.90;;;;;;5070939;28;19908;-89
2020/12/20 11:38:18;;;;;;;;;;;12.10;99.90;;;;;;5071275;28;19991;-89
2020/12/20 11:40:44;;;;;;;;;;;12.20;99.90;;;;;;5071092;28;20300;-89
2020/12/20 11:43:09;;;;;;;;;;;12.20;99.90;;;;;;5070921;28;19954;-89
2020/12/20 11:45:34;;;;;;;;;;;12.20;99.90;;;;;;5070719;28;19923;-89
2020/12/20 11:48:00;;;;;;;;;;;12.20;99.90;;;;;;5070764;28;19920;-89
2020/12/20 11:50:26;;;;;;;;;;;12.30;99.90;;;;;;5052233;28;20463;-90
2020/12/20 11:52:51;;;;;;;;;;;12.40;99.90;;;;;;5050818;28;19915;-89
2020/12/20 11:55:17;;;;;;;;;;;12.40;99.90;;;;;;5051002;28;20012;-89
2020/12/20 11:57:42;;;;;;;;;;;12.50;99.90;;;;;;5051003;28;20297;-89
2020/12/20 12:00:08;;;;;;;;;;;12.50;99.90;;;;;;5050755;28;19916;-89
2020/12/20 12:02:33;;;;;;;;;;;12.50;99.90;;;;;;5051237;28;19909;-89
2020/12/20 12:04:59;;;;;;;;;;;12.50;99.90;;;;;;5059178;28;20003;-89
2020/12/20 12:07:24;;;;;;;;;;;12.50;99.90;;;;;;5061936;28;19913;-90
2020/12/20 12:09:50;;;;;;;;;;;12.50;99.90;;;;;;5055663;28;20371;-89
2020/12/20 12:12:15;;;;;;;;;;;12.40;99.90;;;;;;5060060;28;20411;-89
2020/12/20 12:14:41;;;;;;;;;;;12.40;99.90;;;;;;5060032;28;19916;-89
2020/12/20 12:17:06;;;;;;;;;;;12.40;99.90;;;;;;5066505;28;19916;-90
2020/12/20 12:19:32;;;;;;;;;;;12.30;99.90;;;;;;5071534;28;19992;-88
2020/12/20 12:21:57;;;;;;;;;;;12.30;99.90;;;;;;5056955;28;19963;-89
2020/12/20 12:24:23;;;;;;;;;;;12.20;99.90;;;;;;5054180;28;19916;-90
2020/12/20 12:26:48;;;;;;;;;;;12.10;99.90;;;;;;5053836;28;20291;-89
2020/12/20 12:29:14;;;;;;;;;;;12.10;99.90;;;;;;5054006;28;20386;-89
2020/12/20 12:31:39;;;;;;;;;;;12.10;99.90;;;;;;5054139;28;19956;-89
2020/12/20 12:34:05;;;;;;;;;;;12.00;99.90;;;;;;5054022;28;19912;-90
2020/12/20 12:36:30;;;;;;;;;;;12.00;99.90;;;;;;5053708;28;20365;-89
2020/12/20 12:38:57;;;;;;;;;;;11.90;99.90;;;;;;5053889;28;19909;-89
2020/12/20 12:41:26;;;;;;;;;;;11.80;99.90;;;;;;5053693;28;19909;-89
2020/12/20 12:43:52;;;;;;;;;;;11.80;99.90;;;;;;5053725;28;19912;-90
2020/12/20 12:46:17;;;;;;;;;;;11.80;99.90;;;;;;5053732;28;19915;-89
2020/12/20 12:48:43;;;;;;;;;;;11.80;99.90;;;;;;5057528;28;19912;-89
2020/12/20 12:51:08;;;;;;;;;;;11.80;99.90;;;;;;5073382;28;19908;-90
2020/12/20 12:53:34;;;;;;;;;;;11.80;99.90;;;;;;5073630;28;19909;-90
2020/12/20 12:55:59;;;;;;;;;;;11.80;99.90;;;;;;5073360;28;19909;-91
2020/12/20 12:58:26;;;;;;;;;;;11.80;99.90;;;;;;5073309;28;19908;-90
2020/12/20 13:00:52;;;;;;;;;;;11.80;99.90;;;;;;5073387;28;19958;-90
2020/12/20 13:03:17;;;;;;;;;;;11.90;99.90;;;;;;5073260;28;19908;-91
2020/12/20 13:05:43;;;;;;;;;;;11.90;99.90;;;;;;5073516;28;20437;-89
2020/12/20 13:08:08;;;;;;;;;;;11.90;99.90;;;;;;5073362;28;19946;-89
2020/12/20 13:10:34;;;;;;;;;;;11.90;99.90;;;;;;5073319;28;20430;-89
2020/12/20 13:12:59;;;;;;;;;;;11.90;99.90;;;;;;5073422;28;19913;-89
2020/12/20 13:15:24;;;;;;;;;;;11.90;99.90;;;;;;5073218;28;20287;-89
2020/12/20 13:17:50;;;;;;;;;;;11.90;99.90;;;;;;5073049;28;20035;-90
2020/12/20 13:20:15;;;;;;;;;;;11.90;99.90;;;;;;5064685;28;20376;-89
2020/12/20 13:22:41;;;;;;;;;;;11.80;99.90;;;;;;5072360;28;19916;-89
2020/12/20 13:25:06;;;;;;;;;;;11.70;99.90;;;;;;5072915;28;20020;-90
2020/12/20 13:27:32;;;;;;;;;;;11.70;99.90;;;;;;5072653;28;19919;-90
2020/12/20 13:29:57;;;;;;;;;;;11.70;99.90;;;;;;5072972;28;20427;-89
2020/12/20 13:32:23;;;;;;;;;;;11.70;99.90;;;;;;5072813;28;19915;-89
2020/12/20 13:34:48;;;;;;;;;;;11.60;99.90;;;;;;5072861;28;19915;-89
2020/12/20 13:37:14;;;;;;;;;;;11.60;99.90;;;;;;5072699;28;19912;-89
2020/12/20 13:39:39;;;;;;;;;;;11.60;99.90;;;;;;5072596;28;19909;-90
2020/12/20 13:42:05;;;;;;;;;;;11.60;99.90;;;;;;5072770;28;20011;-90
2020/12/20 13:44:30;;;;;;;;;;;11.60;99.90;;;;;;5072307;28;19918;-89
2020/12/20 13:46:55;;;;;;;;;;;11.50;99.90;;;;;;5072464;28;20275;-89
2020/12/20 13:49:21;;;;;;;;;;;11.50;99.90;;;;;;5072147;28;19944;-89
2020/12/20 13:51:49;;;;;;;;;;;11.50;99.90;;;;;;5073752;28;20443;-90
2020/12/20 13:54:14;;;;;;;;;;;11.50;99.90;;;;;;5072252;28;19909;-90
2020/12/20 13:56:42;;;;;;;;;;;11.50;99.90;;;;;;5071754;28;21456;-90
2020/12/20 13:59:08;;;;;;;;;;;11.50;99.90;;;;;;5072526;28;19909;-89
2020/12/20 14:01:33;;;;;;;;;;;11.50;99.90;;;;;;5072602;28;19958;-90
2020/12/20 14:03:59;;;;;;;;;;;11.60;99.90;;;;;;5072050;28;19955;-90
2020/12/20 14:06:24;;;;;;;;;;;11.50;99.90;;;;;;5072245;28;19962;-89
2020/12/20 14:08:50;;;;;;;;;;;11.50;99.90;;;;;;5072245;28;20421;-90
2020/12/20 14:11:15;;;;;;;;;;;11.50;99.90;;;;;;5071935;28;19912;-90
2020/12/20 14:13:41;;;;;;;;;;;11.40;99.90;;;;;;5072073;28;19958;-89
2020/12/20 14:16:09;;;;;;;;;;;11.40;99.90;;;;;;5071915;28;19909;-89
2020/12/20 14:18:34;;;;;;;;;;;11.40;99.90;;;;;;5071913;28;19909;-90
2020/12/20 14:21:00;;;;;;;;;;;11.40;99.90;;;;;;5071575;28;19909;-89
2020/12/20 14:23:25;;;;;;;;;;;11.30;99.90;;;;;;5071937;28;19919;-90